Terminal Aerodrome Forecast
Issued by NWS

Home | Current Version | Previous Version | Text Only | Print | Product List | Glossary On
Versions: 1 2 3 4 5 6 7 8 9 10 11 12 13 14 15 16 17 18 19 20 21 22 23 24 25 26 27 28 29 30 31 32 33 34 35 36
000
FTUS46 KLOX 270852 AAA
TAFLAX
TAF AMD
KLAX 270852Z 2709/2812 VRB03KT P6SM OVC017
     FM271500 VRB03KT P6SM OVC025
     FM272200 25012KT P6SM SCT025
     FM280300 25008KT P6SM SCT015 SCT250
     FM280600 VRB03KT P6SM BKN015=

USA.gov is the U.S. government's official web portal to all federal, state and local government web resources and services.